createdAt,value
2022-10-04T00:00:36.492Z,97005.00
2022-10-04T00:03:10.179Z,97001.25
2022-10-04T00:05:40.588Z,96996.25
2022-10-04T00:08:25.843Z,97006.59
2022-10-04T00:11:07.593Z,97007.66
2022-10-04T00:13:36.487Z,97015.59
2022-10-04T00:16:03.339Z,97010.84
2022-10-04T00:18:44.751Z,97008.72
2022-10-04T00:21:11.275Z,97007.13
2022-10-04T00:23:37.686Z,97014.81
2022-10-04T00:26:10.543Z,97013.50
2022-10-04T00:28:36.853Z,97012.19
2022-10-04T00:31:11.238Z,97012.28
2022-10-04T00:33:37.606Z,97007.72
2022-10-04T00:36:32.488Z,97006.38
2022-10-04T00:39:04.959Z,97006.69
2022-10-04T00:41:39.540Z,97002.66
2022-10-04T00:44:16.679Z,97001.84
2022-10-04T00:46:45.290Z,96998.69
2022-10-04T00:49:14.079Z,96999.19
2022-10-04T00:51:46.450Z,96997.41
2022-10-04T00:54:38.625Z,97015.50
2022-10-04T00:57:17.692Z,97003.00
2022-10-04T00:59:58.000Z,97004.06
2022-10-04T01:02:44.326Z,96999.75
2022-10-04T01:05:17.739Z,96999.53
2022-10-04T01:07:53.004Z,96998.22
2022-10-04T01:10:31.848Z,97004.31
2022-10-04T01:13:17.806Z,96995.56
2022-10-04T01:15:53.318Z,96993.44
2022-10-04T01:18:19.711Z,96995.06
2022-10-04T01:21:05.472Z,96991.88
2022-10-04T01:24:14.394Z,96990.31
2022-10-04T01:26:43.115Z,96983.44
2022-10-04T01:29:19.075Z,96984.25
2022-10-04T01:31:48.434Z,96983.16
2022-10-04T01:34:23.265Z,96981.34
2022-10-04T01:36:53.584Z,96984.25
2022-10-04T01:39:23.231Z,96976.81
2022-10-04T01:42:10.933Z,96987.97
2022-10-04T01:44:46.312Z,96982.91
2022-10-04T01:47:16.666Z,96975.50
2022-10-04T01:49:46.720Z,96979.72
2022-10-04T01:52:13.084Z,96974.13
2022-10-04T01:54:43.488Z,96973.34
2022-10-04T01:57:18.183Z,96977.91
2022-10-04T02:00:05.346Z,96973.34
2022-10-04T02:02:41.268Z,96973.34
2022-10-04T02:05:12.417Z,96975.00
2022-10-04T02:07:40.736Z,96968.59
2022-10-04T02:10:13.054Z,96963.31
2022-10-04T02:12:46.291Z,96966.47
2022-10-04T02:15:13.830Z,96970.72
2022-10-04T02:17:44.130Z,96973.16
2022-10-04T02:20:21.438Z,96974.47
2022-10-04T02:22:54.927Z,96966.53
2022-10-04T02:25:21.832Z,96950.13
2022-10-04T02:27:53.672Z,96961.19
2022-10-04T02:30:20.632Z,96965.44
2022-10-04T02:33:00.312Z,96958.00
2022-10-04T02:35:32.789Z,96961.75
2022-10-04T02:38:22.525Z,96958.56
2022-10-04T02:40:57.818Z,96964.09
2022-10-04T02:43:30.350Z,96964.97
2022-10-04T02:46:16.808Z,96960.47
2022-10-04T02:48:55.327Z,96970.31
2022-10-04T02:51:28.305Z,96966.06
2022-10-04T02:54:07.166Z,96967.34
2022-10-04T02:56:35.732Z,96962.81
2022-10-04T02:59:06.752Z,96969.75
2022-10-04T03:01:43.893Z,96966.00
2022-10-04T03:04:15.047Z,96963.34
2022-10-04T03:06:43.333Z,96962.56
2022-10-04T03:09:09.995Z,96962.22
2022-10-04T03:11:40.613Z,96963.34
2022-10-04T03:14:15.991Z,96970.78
2022-10-04T03:16:44.871Z,96957.28
2022-10-04T03:19:14.301Z,96962.31
2022-10-04T03:21:43.753Z,96967.09
2022-10-04T03:24:28.792Z,96975.31
2022-10-04T03:26:59.818Z,96966.31
2022-10-04T03:29:28.313Z,96969.75
2022-10-04T03:32:00.005Z,96971.88
2022-10-04T03:34:33.541Z,96975.06
2022-10-04T03:37:02.230Z,96974.78
2022-10-04T03:39:33.447Z,96975.34
2022-10-04T03:42:07.530Z,96979.06
2022-10-04T03:44:34.860Z,96980.91
2022-10-04T03:47:02.351Z,96985.16
2022-10-04T03:49:33.551Z,96981.97
2022-10-04T03:52:01.566Z,96983.31
2022-10-04T03:54:29.159Z,96990.47
2022-10-04T03:56:58.141Z,96988.38
2022-10-04T03:59:27.973Z,96999.53
2022-10-04T04:02:13.361Z,96997.38
2022-10-04T04:04:52.569Z,97002.19
2022-10-04T04:08:00.697Z,96996.34
2022-10-04T04:10:33.843Z,97001.34
2022-10-04T04:13:15.430Z,97004.81
2022-10-04T04:15:43.338Z,97003.75
2022-10-04T04:18:19.332Z,96995.78
2022-10-04T04:20:48.102Z,97004.28
2022-10-04T04:23:14.524Z,96999.00
2022-10-04T04:25:44.248Z,97000.56
2022-10-04T04:28:24.879Z,97002.72
2022-10-04T04:30:57.502Z,97000.31
2022-10-04T04:33:31.365Z,96995.25
2022-10-04T04:36:06.325Z,97005.88
2022-10-04T04:38:33.237Z,97005.88
2022-10-04T04:41:09.848Z,97008.53
2022-10-04T04:43:36.378Z,97009.59
2022-10-04T04:46:26.512Z,97007.19
2022-10-04T04:49:01.201Z,97016.47
2022-10-04T04:51:29.233Z,97013.81
2022-10-04T04:53:56.824Z,97020.19
2022-10-04T04:56:27.763Z,97019.66
2022-10-04T04:58:59.571Z,97022.31
2022-10-04T05:01:29.193Z,97035.28
2022-10-04T05:04:23.497Z,97035.03
2022-10-04T05:07:04.307Z,97043.28
2022-10-04T05:09:37.179Z,97033.47
2022-10-04T05:12:15.352Z,97035.56
2022-10-04T05:14:49.178Z,97035.56
2022-10-04T05:17:22.883Z,97031.84
2022-10-04T05:19:50.506Z,97031.88
2022-10-04T05:22:21.196Z,97040.31
2022-10-04T05:24:52.871Z,97038.19
2022-10-04T05:27:39.229Z,97038.22
2022-10-04T05:30:10.155Z,97042.47
2022-10-04T05:32:50.673Z,97036.63
2022-10-04T05:35:19.536Z,97041.94
2022-10-04T05:38:09.522Z,97045.13
2022-10-04T05:40:46.821Z,97046.16
2022-10-04T05:43:35.306Z,97047.47
2022-10-04T05:46:14.072Z,97058.88
2022-10-04T05:48:43.349Z,97056.75
2022-10-04T05:51:28.689Z,97057.31
2022-10-04T05:53:59.726Z,97061.00
2022-10-04T05:56:40.489Z,97069.47
2022-10-04T05:59:35.235Z,97071.09
2022-10-04T06:02:23.787Z,97072.16
2022-10-04T06:05:08.232Z,97073.75
2022-10-04T06:07:37.515Z,97078.00
2022-10-04T06:10:26.008Z,97072.66
2022-10-04T06:13:23.473Z,97079.81
2022-10-04T06:16:04.364Z,97084.38
2022-10-04T06:18:30.777Z,97087.28
2022-10-04T06:21:21.393Z,97094.97
2022-10-04T06:24:12.476Z,97093.66
2022-10-04T06:26:47.191Z,97089.66
2022-10-04T06:29:20.516Z,97100.53
2022-10-04T06:32:04.930Z,97097.09
2022-10-04T06:35:05.094Z,97096.53
2022-10-04T06:37:56.512Z,97102.91
2022-10-04T06:41:14.880Z,97103.94
2022-10-04T06:44:18.727Z,97104.50
2022-10-04T06:46:51.383Z,97104.47
2022-10-04T06:49:46.924Z,97098.66
2022-10-04T06:52:26.817Z,97099.94
2022-10-04T06:55:13.475Z,97098.56
2022-10-04T06:58:12.836Z,97104.13
2022-10-04T07:00:52.633Z,97112.56
2022-10-04T07:03:39.708Z,97116.25
2022-10-04T07:06:11.262Z,97111.72
2022-10-04T07:08:50.723Z,97121.53
2022-10-04T07:11:30.153Z,97117.03
2022-10-04T07:14:20.271Z,97121.56
2022-10-04T07:16:51.070Z,97118.03
2022-10-04T07:19:20.416Z,97114.84
2022-10-04T07:21:56.015Z,97124.91
2022-10-04T07:24:39.362Z,97133.09
2022-10-04T07:27:10.437Z,97136.00
2022-10-04T07:29:42.322Z,97128.59
2022-10-04T07:32:22.575Z,97132.28
2022-10-04T07:35:06.567Z,97133.09
2022-10-04T07:37:55.079Z,97136.22
2022-10-04T07:40:24.226Z,97135.66
2022-10-04T07:43:13.349Z,97127.75
2022-10-04T07:45:41.635Z,97140.25
2022-10-04T07:48:17.701Z,97138.59
2022-10-04T07:50:58.090Z,97144.63
2022-10-04T07:53:53.513Z,97150.50
2022-10-04T07:56:42.225Z,97146.94
2022-10-04T07:59:41.094Z,97142.19
2022-10-04T08:02:31.205Z,97153.06
2022-10-04T08:05:07.714Z,97150.69
2022-10-04T08:08:02.738Z,97146.09
2022-10-04T08:10:44.736Z,97150.53
2022-10-04T08:13:14.042Z,97148.91
2022-10-04T08:15:43.127Z,97152.06
2022-10-04T08:18:30.853Z,97153.59
2022-10-04T08:21:01.902Z,97153.84
2022-10-04T08:23:47.170Z,97154.88
2022-10-04T08:26:51.339Z,97157.44
2022-10-04T08:29:36.364Z,97157.91
2022-10-04T08:32:10.381Z,97152.72
2022-10-04T08:34:54.711Z,97152.16
2022-10-04T08:37:33.195Z,97147.66
2022-10-04T08:40:34.225Z,97144.63
2022-10-04T08:43:37.394Z,97147.19
2022-10-04T08:46:44.137Z,97144.16
2022-10-04T08:49:20.021Z,97138.00
2022-10-04T08:52:07.942Z,97134.16
2022-10-04T08:54:57.080Z,97140.22
2022-10-04T08:57:45.136Z,97140.38
2022-10-04T09:00:30.474Z,97145.63
2022-10-04T09:03:35.490Z,97140.31
2022-10-04T09:06:38.984Z,97150.84
2022-10-04T09:09:53.494Z,97148.63
2022-10-04T09:12:47.195Z,97149.66
2022-10-04T09:15:31.333Z,97146.41
2022-10-04T09:18:13.440Z,97140.69
2022-10-04T09:20:41.093Z,97139.84
2022-10-04T09:23:26.991Z,97135.59
2022-10-04T09:26:01.494Z,97136.59
2022-10-04T09:28:38.582Z,97134.97
2022-10-04T09:31:20.300Z,97133.06
2022-10-04T09:34:03.346Z,97137.56
2022-10-04T09:36:40.697Z,97134.50
2022-10-04T09:39:45.574Z,97132.94
2022-10-04T09:42:35.617Z,97132.31
2022-10-04T09:45:06.030Z,97141.25
2022-10-04T09:47:43.805Z,97136.38
2022-10-04T09:50:17.442Z,97136.03
2022-10-04T09:52:55.481Z,97129.53
2022-10-04T09:55:42.094Z,97134.31
2022-10-04T09:58:25.195Z,97135.28
2022-10-04T10:01:09.890Z,97137.59
2022-10-04T10:03:46.143Z,97141.06
2022-10-04T10:06:24.711Z,97147.59
2022-10-04T10:09:18.398Z,97152.25
2022-10-04T10:12:43.109Z,97141.31
2022-10-04T10:15:36.459Z,97152.97
2022-10-04T10:18:24.220Z,97150.81
2022-10-04T10:20:59.289Z,97151.00
2022-10-04T10:23:26.442Z,97147.44
2022-10-04T10:26:14.744Z,97155.47
2022-10-04T10:29:03.045Z,97157.75
2022-10-04T10:32:04.294Z,97164.41
2022-10-04T10:34:45.840Z,97160.13
2022-10-04T10:37:35.677Z,97158.75
2022-10-04T10:41:00.092Z,97164.59
2022-10-04T10:43:46.505Z,97163.72
2022-10-04T10:46:39.484Z,97162.03
2022-10-04T10:49:20.085Z,97165.41
2022-10-04T10:52:07.300Z,97157.41
2022-10-04T10:55:07.729Z,97160.69
2022-10-04T10:58:05.143Z,97153.66
2022-10-04T11:00:31.488Z,97152.59
2022-10-04T11:03:32.367Z,97149.91
2022-10-04T11:06:01.910Z,97150.88
2022-10-04T11:08:56.980Z,97149.72
2022-10-04T11:12:04.162Z,97150.69
2022-10-04T11:14:41.009Z,97146.34
2022-10-04T11:17:37.871Z,97148.41
2022-10-04T11:20:38.171Z,97148.91
2022-10-04T11:23:14.017Z,97141.09
2022-10-04T11:26:04.005Z,97133.84
2022-10-04T11:28:53.635Z,97137.03
2022-10-04T11:31:26.148Z,97131.06
2022-10-04T11:34:31.803Z,97135.81
2022-10-04T11:37:14.510Z,97129.78
2022-10-04T11:39:56.115Z,97134.03
2022-10-04T11:42:43.805Z,97125.41
2022-10-04T11:45:38.326Z,97128.88
2022-10-04T11:48:35.077Z,97123.13
2022-10-04T11:51:10.965Z,97119.34
2022-10-04T11:54:13.094Z,97119.34
2022-10-04T11:57:10.113Z,97118.16
2022-10-04T12:00:01.780Z,97116.16
2022-10-04T12:02:53.413Z,97115.88
2022-10-04T12:05:38.400Z,97111.78
2022-10-04T12:08:23.047Z,97108.50
2022-10-04T12:11:27.019Z,97113.75
2022-10-04T12:14:04.020Z,97109.19
2022-10-04T12:17:12.673Z,97109.97
2022-10-04T12:19:52.246Z,97109.59
2022-10-04T12:22:52.951Z,97104.66
2022-10-04T12:26:01.389Z,97095.97
2022-10-04T12:28:39.807Z,97099.38
2022-10-04T12:31:24.856Z,97087.16
2022-10-04T12:34:14.778Z,97090.44
2022-10-04T12:37:13.759Z,97085.47
2022-10-04T12:39:56.745Z,97072.09
2022-10-04T12:42:36.310Z,97080.69
2022-10-04T12:45:30.607Z,97077.56
2022-10-04T12:48:33.070Z,97074.88
2022-10-04T12:51:21.459Z,97075.34
2022-10-04T12:54:29.725Z,97072.69
2022-10-04T12:57:14.720Z,97073.66
2022-10-04T13:00:10.968Z,97072.69
2022-10-04T13:03:02.545Z,97066.38
2022-10-04T13:05:47.484Z,97069.81
2022-10-04T13:08:39.864Z,97060.41
2022-10-04T13:11:06.553Z,97066.97
2022-10-04T13:13:41.886Z,97063.50
2022-10-04T13:19:50.285Z,97064.59
2022-10-04T13:22:55.375Z,97067.78
2022-10-04T13:25:30.228Z,97063.19
2022-10-04T13:28:11.735Z,97065.88
2022-10-04T13:30:47.383Z,97065.88
2022-10-04T13:33:28.968Z,97061.56
2022-10-04T13:36:08.524Z,97050.69
2022-10-04T13:38:37.997Z,97057.44
2022-10-04T13:41:18.476Z,97051.97
2022-10-04T13:43:56.980Z,97054.63
2022-10-04T13:46:36.413Z,97051.56
2022-10-04T13:49:18.346Z,97051.63
2022-10-04T13:52:39.355Z,97051.88
2022-10-04T13:55:24.005Z,97044.13
2022-10-04T13:57:54.774Z,97044.72
2022-10-04T14:00:55.495Z,97045.34
2022-10-04T14:03:40.279Z,97043.03
2022-10-04T14:06:28.297Z,97045.25
2022-10-04T14:09:36.923Z,97051.97
2022-10-04T14:12:25.802Z,97048.19
2022-10-04T14:15:10.384Z,97043.13
2022-10-04T14:17:49.397Z,97044.06
2022-10-04T14:20:44.478Z,97045.91
2022-10-04T14:23:33.795Z,97048.31
2022-10-04T14:26:52.079Z,97042.78
2022-10-04T14:29:26.180Z,97044.53
2022-10-04T14:32:03.780Z,97038.84
2022-10-04T14:34:53.676Z,97045.59
2022-10-04T14:37:45.081Z,97039.13
2022-10-04T14:40:36.563Z,97039.41
2022-10-04T14:43:21.219Z,97039.25
2022-10-04T14:46:09.150Z,97043.97
2022-10-04T14:48:42.540Z,97044.09
2022-10-04T14:51:41.628Z,97040.66
2022-10-04T14:54:26.163Z,97046.59
2022-10-04T14:57:25.057Z,97042.66
2022-10-04T15:00:08.667Z,97043.16
2022-10-04T15:02:42.645Z,97040.97
2022-10-04T15:05:41.892Z,97037.97
2022-10-04T15:08:41.512Z,97038.59
2022-10-04T15:11:12.466Z,97041.09
2022-10-04T15:13:55.637Z,97039.69
2022-10-04T15:16:45.527Z,97039.50
2022-10-04T15:19:21.245Z,97039.31
2022-10-04T15:21:53.629Z,97040.38
2022-10-04T15:24:27.983Z,97031.78
2022-10-04T15:27:28.745Z,97025.44
2022-10-04T15:30:11.977Z,97032.69
2022-10-04T15:32:50.249Z,97029.03
2022-10-04T15:35:25.683Z,97035.78
2022-10-04T15:38:07.187Z,97031.03
2022-10-04T15:40:41.961Z,97030.53
2022-10-04T15:43:20.226Z,97033.81
2022-10-04T15:46:00.769Z,97031.44
2022-10-04T15:48:48.386Z,97034.72
2022-10-04T15:51:14.774Z,97037.22
2022-10-04T15:54:05.856Z,97039.72
2022-10-04T15:56:41.494Z,97044.34
2022-10-04T15:59:27.070Z,97047.63
2022-10-04T16:02:00.379Z,97043.50
2022-10-04T16:04:55.825Z,97047.13
2022-10-04T16:07:51.013Z,97051.53
2022-10-04T16:10:24.129Z,97056.09
2022-10-04T16:12:53.877Z,97059.16
2022-10-04T16:15:31.375Z,97050.94
2022-10-04T16:18:10.096Z,97051.53
2022-10-04T16:20:58.761Z,97058.25
2022-10-04T16:23:44.074Z,97058.84
2022-10-04T16:26:16.286Z,97058.06
2022-10-04T16:29:12.654Z,97064.31
2022-10-04T16:31:50.110Z,97067.53
2022-10-04T16:34:45.667Z,97077.25
2022-10-04T16:37:33.550Z,97070.03
2022-10-04T16:40:09.677Z,97077.94
2022-10-04T16:42:46.114Z,97086.25
2022-10-04T16:45:43.515Z,97092.47
2022-10-04T16:48:29.134Z,97096.63
2022-10-04T16:51:05.319Z,97098.00
2022-10-04T16:53:53.874Z,97104.25
2022-10-04T16:56:30.136Z,97112.66
2022-10-04T16:59:05.437Z,97115.41
2022-10-04T17:01:38.559Z,97115.41
2022-10-04T17:04:05.711Z,97124.00
2022-10-04T17:06:44.129Z,97128.84
2022-10-04T17:09:47.874Z,97137.44
2022-10-04T17:12:19.164Z,97137.03
2022-10-04T17:14:53.021Z,97141.59
2022-10-04T17:17:46.824Z,97152.53
2022-10-04T17:24:10.796Z,97153.19
2022-10-04T17:27:03.225Z,97157.72
2022-10-04T17:30:08.131Z,97169.78
2022-10-04T17:32:47.297Z,97176.47
2022-10-04T17:35:32.797Z,97177.06
2022-10-04T17:38:25.986Z,97179.31
2022-10-04T17:41:16.035Z,97182.66
2022-10-04T17:44:19.304Z,97184.53
2022-10-04T17:46:50.929Z,97191.75
2022-10-04T17:50:09.187Z,97198.13
2022-10-04T17:53:03.867Z,97201.09
2022-10-04T17:55:48.834Z,97203.31
2022-10-04T17:58:47.797Z,97206.97
2022-10-04T18:01:29.292Z,97211.41
2022-10-04T18:04:23.575Z,97214.84
2022-10-04T18:06:56.773Z,97218.31
2022-10-04T18:09:41.364Z,97222.13
2022-10-04T18:12:29.040Z,97218.97
2022-10-04T18:15:07.339Z,97222.72
2022-10-04T18:17:46.164Z,97219.47
2022-10-04T18:20:53.046Z,97222.72
2022-10-04T18:23:35.161Z,97229.91
2022-10-04T18:26:18.422Z,97222.78
2022-10-04T18:28:47.427Z,97232.91
2022-10-04T18:31:13.797Z,97232.69
2022-10-04T18:33:40.289Z,97227.13
2022-10-04T18:36:27.363Z,97235.19
2022-10-04T18:39:11.760Z,97232.47
2022-10-04T18:41:54.345Z,97223.84
2022-10-04T18:44:29.516Z,97234.06
2022-10-04T18:46:59.378Z,97236.72
2022-10-04T18:49:31.035Z,97237.78
2022-10-04T18:52:10.713Z,97247.16
2022-10-04T18:54:49.345Z,97248.69
2022-10-04T18:57:33.411Z,97256.75
2022-10-04T19:00:31.664Z,97259.19
2022-10-04T19:03:18.151Z,97251.38
2022-10-04T19:06:01.293Z,97248.91
2022-10-04T19:08:53.263Z,97255.94
2022-10-04T19:11:29.082Z,97254.53
2022-10-04T19:14:25.937Z,97257.75
2022-10-04T19:17:08.865Z,97270.81
2022-10-04T19:20:04.271Z,97282.53
2022-10-04T19:22:50.016Z,97274.56
2022-10-04T19:25:27.211Z,97290.06
2022-10-04T19:28:08.755Z,97293.78
2022-10-04T19:30:43.301Z,97294.63
2022-10-04T19:33:17.589Z,97300.44
2022-10-04T19:36:22.254Z,97302.38
2022-10-04T19:39:26.061Z,97309.34
2022-10-04T19:41:52.342Z,97323.72
2022-10-04T19:44:42.450Z,97325.78
2022-10-04T19:47:35.104Z,97338.34
2022-10-04T19:50:21.450Z,97339.69
2022-10-04T19:52:57.655Z,97335.84
2022-10-04T19:55:41.433Z,97342.94
2022-10-04T19:58:22.699Z,97331.66
2022-10-04T20:00:49.237Z,97332.22
2022-10-04T20:03:16.165Z,97335.88
2022-10-04T20:05:48.684Z,97340.50
2022-10-04T20:08:17.242Z,97339.66
2022-10-04T20:10:44.184Z,97342.38
2022-10-04T20:13:10.762Z,97342.16
2022-10-04T20:15:37.735Z,97342.22
2022-10-04T20:18:31.898Z,97346.41
2022-10-04T20:21:01.568Z,97341.53
2022-10-04T20:23:40.467Z,97350.16
2022-10-04T20:26:08.520Z,97349.00
2022-10-04T20:28:41.730Z,97350.88
2022-10-04T20:31:10.804Z,97355.75
2022-10-04T20:33:38.901Z,97349.00
2022-10-04T20:36:09.864Z,97358.03
2022-10-04T20:38:49.958Z,97364.69
2022-10-04T20:41:28.547Z,97367.63
2022-10-04T20:44:01.438Z,97377.25
2022-10-04T20:46:38.058Z,97385.78
2022-10-04T20:49:17.942Z,97389.00
2022-10-04T20:51:50.829Z,97394.06
2022-10-04T20:54:22.486Z,97398.06
2022-10-04T20:56:50.331Z,97398.28
2022-10-04T20:59:17.870Z,97392.47
2022-10-04T21:02:04.427Z,97392.16
2022-10-04T21:04:41.473Z,97404.16
2022-10-04T21:07:12.480Z,97418.03
2022-10-04T21:09:41.363Z,97420.44
2022-10-04T21:12:30.720Z,97412.53
2022-10-04T21:15:21.642Z,97414.38
2022-10-04T21:18:03.259Z,97414.84
2022-10-04T21:20:49.321Z,97422.81
2022-10-04T21:23:33.733Z,97427.59
2022-10-04T21:26:23.381Z,97419.59
2022-10-04T21:28:54.065Z,97423.38
2022-10-04T21:31:20.523Z,97424.41
2022-10-04T21:33:47.124Z,97419.59
2022-10-04T21:36:13.711Z,97425.72
2022-10-04T21:38:40.527Z,97424.94
2022-10-04T21:41:07.366Z,97422.59
2022-10-04T21:43:34.431Z,97431.91
2022-10-04T21:46:01.087Z,97428.22
2022-10-04T21:48:27.660Z,97428.41
2022-10-04T21:50:55.174Z,97437.16
2022-10-04T21:53:22.294Z,97440.94
2022-10-04T21:55:49.087Z,97437.75
2022-10-04T21:58:16.087Z,97433.31
2022-10-04T22:00:42.569Z,97435.66
2022-10-04T22:03:09.000Z,97435.59
2022-10-04T22:05:35.512Z,97439.91
2022-10-04T22:08:02.010Z,97439.38
2022-10-04T22:10:28.746Z,97440.47
2022-10-04T22:12:56.967Z,97437.34
2022-10-04T22:15:25.703Z,97435.69
2022-10-04T22:17:52.271Z,97444.22
2022-10-04T22:20:19.146Z,97436.50
2022-10-04T22:22:45.644Z,97436.75
2022-10-04T22:25:17.990Z,97436.75
2022-10-04T22:27:45.273Z,97436.75
2022-10-04T22:30:21.688Z,97441.00
2022-10-04T22:32:48.728Z,97431.88
2022-10-04T22:35:19.155Z,97434.34
2022-10-04T22:37:46.760Z,97433.00
2022-10-04T22:40:22.011Z,97434.06
2022-10-04T22:42:54.053Z,97435.94
2022-10-04T22:45:27.052Z,97443.13
2022-10-04T22:47:55.966Z,97438.06
2022-10-04T22:50:32.207Z,97450.31
2022-10-04T22:53:03.187Z,97447.34
2022-10-04T22:55:29.692Z,97451.94
2022-10-04T22:57:56.307Z,97450.88
2022-10-04T23:00:22.728Z,97443.94
2022-10-04T23:02:49.211Z,97443.13
2022-10-04T23:05:18.522Z,97440.72
2022-10-04T23:07:46.436Z,97439.38
2022-10-04T23:10:15.216Z,97445.22
2022-10-04T23:12:45.523Z,97445.75
2022-10-04T23:15:20.091Z,97444.69
2022-10-04T23:17:53.973Z,97443.66
2022-10-04T23:20:20.549Z,97449.00
2022-10-04T23:22:49.103Z,97445.28
2022-10-04T23:25:19.989Z,97445.59
2022-10-04T23:27:47.772Z,97450.56
2022-10-04T23:30:20.291Z,97447.13
2022-10-04T23:32:49.325Z,97446.28
2022-10-04T23:35:29.933Z,97451.66
2022-10-04T23:37:56.635Z,97454.09
2022-10-04T23:40:24.777Z,97457.78
2022-10-04T23:42:54.886Z,97453.81
2022-10-04T23:45:23.751Z,97456.53
2022-10-04T23:47:54.127Z,97455.47
2022-10-04T23:50:33.999Z,97457.59
2022-10-04T23:53:06.506Z,97448.25
2022-10-04T23:55:38.780Z,97449.25
2022-10-04T23:58:20.218Z,97443.09
